首页
METAR-TAF:

METAR-TAF

机场 :

安曼民航機場

安曼, 约旦

纬度: 31-59N, 经度: 035-59E, 海拔: 767米

当前天气观测

该预报发布于17分钟前的14:00 UTC
风速12节,风向西北
温度 28°C
湿度 27%
气压 1014 hPa
能見度: 6000
少量云层高于3000英尺

METAR: OJAM 191400Z 32012KT 6000 FEW030 28/07 Q1014 NOSIG

时间: 17:17 (14:17 UTC)

预报

该预报发布于3小时和17分钟前的11:00 UTC
预报有效从19日的 12点(UTC)到 20日的 18点(UTC)
风速8节,风向西
能見度: 6000
短暂存在
从 19日的 12点(UTC)到 19日的 18点(UTC)
风速12节,风向西
能見度: 5000

TAF: OJAM 191100Z 1912/2018 26008KT 6000 NSC TEMPO 1912/1918 28012KT 5000 HZ

超过4000个机场的气象观测和天气预报(METAR&TAF报告)。

可查询的气象台以黄色和红色小点在地图上表示。

将鼠标移到小点上方,可查看气象台名称。

然后点击查看天气观测和预报。

如需切换地图:点击带黑十字的绿色按钮放大地图;点击带横线的绿色按钮缩小地图;或者点击绿色箭头查看邻近地区的地图。


METAR-TAF: